Time;durP1;ratioP1;P1;durP2;ratioP2;P2;SDS_P1;SDS_P2;PMS_P1;PMS_P2;Temp;Humidity;BMP_temperature;BMP_pressure;BME280_temperature;BME280_humidity;BME280_pressure;Samples;Min_cycle;Max_cycle;Signal;HPM_P1;HPM_P2
2021/07/06 00:01:52;;;;;;;16.38;14.68;;;;;;;;;;4950596;28;20472;-83
2021/07/06 00:04:18;;;;;;;16.92;14.98;;;;;;;;;;4950253;28;20055;-83
2021/07/06 00:06:45;;;;;;;16.17;14.50;;;;;;;;;;4948713;28;20051;-82
2021/07/06 00:09:11;;;;;;;16.38;14.65;;;;;;;;;;4948990;28;20110;-82
2021/07/06 00:11:38;;;;;;;15.80;14.10;;;;;;;;;;4949364;28;20051;-82
2021/07/06 00:14:05;;;;;;;16.70;15.00;;;;;;;;;;4949087;28;20526;-82
2021/07/06 00:16:31;;;;;;;16.30;14.60;;;;;;;;;;4949116;28;20448;-82
2021/07/06 00:18:57;;;;;;;14.88;13.43;;;;;;;;;;4950715;28;20082;-82
2021/07/06 00:21:25;;;;;;;17.50;14.35;;;;;;;;;;4949486;28;20079;-85
2021/07/06 00:23:52;;;;;;;14.77;13.27;;;;;;;;;;4951403;28;20130;-83
2021/07/06 00:26:19;;;;;;;15.13;13.43;;;;;;;;;;4953889;28;20130;-83
2021/07/06 00:28:45;;;;;;;15.50;13.98;;;;;;;;;;4951822;28;20054;-83
2021/07/06 00:31:12;;;;;;;16.08;14.48;;;;;;;;;;4952650;28;20513;-83
2021/07/06 00:33:38;;;;;;;16.17;14.60;;;;;;;;;;4951615;28;20055;-82
2021/07/06 00:36:05;;;;;;;16.20;14.57;;;;;;;;;;4953535;28;20051;-82
2021/07/06 00:38:31;;;;;;;14.98;13.43;;;;;;;;;;4947426;28;20051;-82
2021/07/06 00:40:58;;;;;;;16.70;14.90;;;;;;;;;;4935042;28;20075;-82
2021/07/06 00:43:24;;;;;;;15.75;14.25;;;;;;;;;;4933086;29;20106;-87
2021/07/06 00:45:51;;;;;;;15.15;13.63;;;;;;;;;;4934091;28;20059;-83
2021/07/06 00:48:18;;;;;;;16.70;14.27;;;;;;;;;;4948456;28;20066;-83
2021/07/06 00:50:44;;;;;;;15.73;14.07;;;;;;;;;;4952559;28;20126;-82
2021/07/06 00:53:11;;;;;;;16.75;13.60;;;;;;;;;;4953441;28;20051;-83
2021/07/06 00:55:38;;;;;;;16.02;14.32;;;;;;;;;;4952442;28;20503;-82
2021/07/06 00:58:04;;;;;;;17.58;15.02;;;;;;;;;;4953233;28;20062;-82
2021/07/06 01:00:30;;;;;;;15.27;13.68;;;;;;;;;;4952252;28;20051;-82
2021/07/06 01:02:57;;;;;;;15.82;14.20;;;;;;;;;;4951952;28;20130;-82
2021/07/06 01:05:24;;;;;;;16.83;15.13;;;;;;;;;;4939202;28;20056;-86
2021/07/06 01:07:52;;;;;;;16.10;14.40;;;;;;;;;;4970788;28;20063;-83
2021/07/06 01:10:19;;;;;;;16.45;14.73;;;;;;;;;;4972107;28;20047;-85
2021/07/06 01:12:46;;;;;;;16.92;15.23;;;;;;;;;;4970226;28;20038;-83
2021/07/06 01:15:16;;;;;;;16.77;14.98;;;;;;;;;;4972255;28;20089;-82
2021/07/06 01:17:44;;;;;;;17.33;15.48;;;;;;;;;;4971571;28;20059;-85
2021/07/06 01:20:13;;;;;;;16.67;15.02;;;;;;;;;;4972157;28;20057;-85
2021/07/06 01:22:39;;;;;;;17.63;15.73;;;;;;;;;;4959747;28;20051;-84
2021/07/06 01:25:07;;;;;;;16.45;14.75;;;;;;;;;;4952189;28;20062;-82
2021/07/06 01:27:35;;;;;;;17.98;15.88;;;;;;;;;;4950655;28;20439;-82
2021/07/06 01:30:01;;;;;;;17.75;15.95;;;;;;;;;;4952622;28;20063;-84
2021/07/06 01:32:27;;;;;;;17.45;15.50;;;;;;;;;;4952547;28;20074;-86
2021/07/06 01:34:53;;;;;;;16.13;14.52;;;;;;;;;;4945620;28;20055;-83
2021/07/06 01:37:20;;;;;;;18.42;15.88;;;;;;;;;;4933621;29;20059;-84
2021/07/06 01:39:47;;;;;;;16.95;14.80;;;;;;;;;;4931396;29;20050;-86
2021/07/06 01:42:20;;;;;;;17.35;15.68;;;;;;;;;;4938293;28;20055;-82
2021/07/06 01:44:47;;;;;;;17.00;15.23;;;;;;;;;;4949639;28;20047;-84
2021/07/06 01:47:13;;;;;;;16.60;14.90;;;;;;;;;;4952681;28;20064;-82
2021/07/06 01:49:40;;;;;;;16.33;14.75;;;;;;;;;;4951726;28;20582;-85
2021/07/06 01:52:06;;;;;;;16.90;15.10;;;;;;;;;;4950777;28;20058;-84
2021/07/06 01:54:33;;;;;;;15.75;14.15;;;;;;;;;;4951254;28;20058;-84
2021/07/06 01:56:59;;;;;;;15.77;13.57;;;;;;;;;;4951512;29;20053;-84
2021/07/06 01:59:25;;;;;;;16.70;14.57;;;;;;;;;;4951886;28;20090;-87
2021/07/06 02:01:51;;;;;;;15.57;13.88;;;;;;;;;;4949767;28;20051;-85
2021/07/06 02:04:18;;;;;;;15.95;13.82;;;;;;;;;;4949714;28;20047;-85
2021/07/06 02:06:44;;;;;;;15.15;13.55;;;;;;;;;;4948941;28;20314;-83
2021/07/06 02:09:10;;;;;;;15.48;13.88;;;;;;;;;;4952121;28;20047;-84
2021/07/06 02:11:37;;;;;;;16.15;14.55;;;;;;;;;;4950664;28;20066;-83
2021/07/06 02:14:04;;;;;;;15.23;13.57;;;;;;;;;;4950756;28;20475;-84
2021/07/06 02:16:30;;;;;;;15.25;13.63;;;;;;;;;;4949537;28;20054;-83
2021/07/06 02:18:56;;;;;;;14.95;13.45;;;;;;;;;;4951413;28;20055;-83
2021/07/06 02:21:23;;;;;;;15.60;14.00;;;;;;;;;;4950974;28;20051;-84
2021/07/06 02:23:49;;;;;;;15.60;13.95;;;;;;;;;;4951108;28;20059;-84
2021/07/06 02:26:16;;;;;;;15.85;14.30;;;;;;;;;;4951589;28;20058;-84
2021/07/06 02:28:42;;;;;;;16.15;13.73;;;;;;;;;;4950787;28;20079;-84
2021/07/06 02:31:08;;;;;;;15.10;13.07;;;;;;;;;;4947060;28;20067;-84
2021/07/06 02:33:35;;;;;;;15.18;13.60;;;;;;;;;;4931629;28;20111;-83
2021/07/06 02:36:06;;;;;;;15.85;13.38;;;;;;;;;;4950019;28;20106;-83
2021/07/06 02:38:33;;;;;;;14.02;12.63;;;;;;;;;;4950655;28;20130;-84
2021/07/06 02:41:00;;;;;;;13.93;12.55;;;;;;;;;;4950614;28;20063;-84
2021/07/06 02:43:32;;;;;;;14.40;12.88;;;;;;;;;;4938235;28;20091;-83
2021/07/06 02:45:58;;;;;;;14.30;12.90;;;;;;;;;;4950956;28;20114;-85
2021/07/06 02:48:25;;;;;;;14.38;12.38;;;;;;;;;;4950976;28;20062;-86
2021/07/06 02:50:51;;;;;;;13.77;12.35;;;;;;;;;;4949414;28;20058;-84
2021/07/06 02:53:17;;;;;;;15.85;12.32;;;;;;;;;;4951220;28;20110;-84
2021/07/06 02:55:44;;;;;;;14.55;13.00;;;;;;;;;;4950067;28;20134;-83
2021/07/06 02:58:11;;;;;;;14.60;12.43;;;;;;;;;;4951153;28;20047;-84
2021/07/06 03:00:37;;;;;;;13.57;12.18;;;;;;;;;;4949606;28;20503;-84
2021/07/06 03:03:07;;;;;;;12.73;11.35;;;;;;;;;;4949756;28;20055;-83
2021/07/06 03:05:34;;;;;;;13.55;12.15;;;;;;;;;;4951773;28;20129;-83
2021/07/06 03:08:01;;;;;;;14.70;11.57;;;;;;;;;;4970162;28;20510;-83
2021/07/06 03:10:28;;;;;;;13.13;11.52;;;;;;;;;;4938657;28;20051;-87
2021/07/06 03:12:55;;;;;;;13.25;11.90;;;;;;;;;;4950738;28;20480;-84
2021/07/06 03:15:22;;;;;;;13.50;10.85;;;;;;;;;;4949978;28;20066;-84
2021/07/06 03:17:49;;;;;;;12.88;11.57;;;;;;;;;;4950055;28;20250;-84
2021/07/06 03:20:16;;;;;;;13.60;11.10;;;;;;;;;;4942727;28;20075;-84
2021/07/06 03:22:42;;;;;;;11.38;10.25;;;;;;;;;;4930760;29;20412;-84
2021/07/06 03:25:10;;;;;;;11.93;10.73;;;;;;;;;;4931682;28;20051;-83
2021/07/06 03:27:38;;;;;;;11.15;10.05;;;;;;;;;;4929081;29;20448;-84
2021/07/06 03:30:08;;;;;;;11.32;10.18;;;;;;;;;;4930443;29;20055;-84
2021/07/06 03:32:34;;;;;;;12.27;10.50;;;;;;;;;;4930407;29;20087;-84
2021/07/06 03:35:01;;;;;;;11.23;9.90;;;;;;;;;;4937997;28;20058;-82
2021/07/06 03:37:28;;;;;;;10.57;9.57;;;;;;;;;;4968393;28;20070;-87
2021/07/06 03:39:54;;;;;;;13.05;10.20;;;;;;;;;;4962201;28;20055;-84
2021/07/06 03:42:20;;;;;;;12.32;9.48;;;;;;;;;;4950491;28;21135;-84
2021/07/06 03:44:46;;;;;;;10.15;9.15;;;;;;;;;;4949704;28;20047;-84
2021/07/06 03:47:12;;;;;;;12.30;9.00;;;;;;;;;;4950173;28;20058;-85
2021/07/06 03:49:39;;;;;;;10.13;9.02;;;;;;;;;;4948356;28;20051;-84
2021/07/06 03:52:05;;;;;;;9.95;8.73;;;;;;;;;;4948142;28;20083;-84
2021/07/06 03:54:31;;;;;;;9.57;8.68;;;;;;;;;;4940744;28;20051;-87
2021/07/06 03:56:58;;;;;;;9.75;8.70;;;;;;;;;;4949665;28;20051;-84
2021/07/06 03:59:24;;;;;;;9.10;8.10;;;;;;;;;;4952784;28;20059;-84
2021/07/06 04:01:50;;;;;;;8.85;7.60;;;;;;;;;;4953449;28;20063;-83
2021/07/06 04:04:17;;;;;;;10.25;7.32;;;;;;;;;;4954488;28;20051;-84
2021/07/06 04:06:43;;;;;;;8.45;7.55;;;;;;;;;;4964242;28;20418;-83
2021/07/06 04:09:09;;;;;;;8.40;7.60;;;;;;;;;;4972296;28;20566;-83
2021/07/06 04:11:35;;;;;;;7.95;7.20;;;;;;;;;;4955093;28;20115;-85
2021/07/06 04:14:02;;;;;;;7.95;7.15;;;;;;;;;;4953413;28;20062;-83
2021/07/06 04:16:28;;;;;;;9.10;7.63;;;;;;;;;;4944863;28;20464;-87
2021/07/06 04:18:54;;;;;;;7.82;6.97;;;;;;;;;;4933157;29;20051;-85
2021/07/06 04:21:20;;;;;;;8.85;7.50;;;;;;;;;;4933421;29;20067;-84
2021/07/06 04:23:47;;;;;;;9.43;7.47;;;;;;;;;;4933952;29;20051;-84
2021/07/06 04:26:13;;;;;;;7.68;6.80;;;;;;;;;;4934815;28;20051;-85
2021/07/06 04:28:39;;;;;;;7.88;7.07;;;;;;;;;;4933549;28;20064;-84
2021/07/06 04:31:06;;;;;;;7.63;6.68;;;;;;;;;;4933498;28;20408;-85
2021/07/06 04:33:32;;;;;;;7.70;6.65;;;;;;;;;;4951583;28;20479;-86
2021/07/06 04:35:58;;;;;;;9.15;6.30;;;;;;;;;;4952534;28;20051;-83
2021/07/06 04:38:25;;;;;;;7.00;6.30;;;;;;;;;;4951939;28;20059;-83
2021/07/06 04:40:51;;;;;;;10.82;6.90;;;;;;;;;;4966247;28;20063;-84
2021/07/06 04:43:17;;;;;;;7.93;6.43;;;;;;;;;;4972018;28;20055;-85
2021/07/06 04:45:44;;;;;;;8.25;6.82;;;;;;;;;;4971713;28;20055;-84
2021/07/06 04:48:11;;;;;;;7.10;6.40;;;;;;;;;;4973440;28;20594;-84
2021/07/06 04:50:38;;;;;;;8.57;6.65;;;;;;;;;;4972875;28;20057;-84
2021/07/06 04:53:05;;;;;;;6.53;5.85;;;;;;;;;;4971610;28;20089;-85
2021/07/06 04:55:32;;;;;;;6.40;5.80;;;;;;;;;;4971411;28;20051;-90
2021/07/06 04:57:58;;;;;;;6.07;5.47;;;;;;;;;;4974003;28;20042;-84
2021/07/06 05:00:24;;;;;;;6.07;5.47;;;;;;;;;;4973335;28;20054;-84
2021/07/06 05:02:50;;;;;;;6.00;5.40;;;;;;;;;;4971538;28;20085;-84
2021/07/06 05:05:16;;;;;;;6.47;5.18;;;;;;;;;;4972358;28;20047;-84
2021/07/06 05:07:43;;;;;;;5.38;4.88;;;;;;;;;;4955244;28;20556;-84
2021/07/06 05:10:10;;;;;;;5.50;4.82;;;;;;;;;;4972313;28;20399;-84
2021/07/06 05:12:37;;;;;;;6.22;4.93;;;;;;;;;;4964349;28;20048;-84
2021/07/06 05:15:04;;;;;;;5.60;4.72;;;;;;;;;;4952716;28;20055;-85
2021/07/06 05:17:30;;;;;;;5.30;4.80;;;;;;;;;;4953074;28;20476;-88
2021/07/06 05:19:57;;;;;;;5.07;4.50;;;;;;;;;;4953802;28;20066;-84
2021/07/06 05:22:23;;;;;;;5.78;4.47;;;;;;;;;;4954050;28;20077;-84
2021/07/06 05:24:50;;;;;;;5.00;4.25;;;;;;;;;;4953736;28;20047;-84
2021/07/06 05:27:16;;;;;;;5.38;4.32;;;;;;;;;;4952636;28;20098;-86
2021/07/06 05:29:43;;;;;;;5.93;4.30;;;;;;;;;;4953055;28;20055;-87
2021/07/06 05:32:10;;;;;;;4.93;4.18;;;;;;;;;;4953103;28;20047;-86
2021/07/06 05:34:36;;;;;;;5.65;4.15;;;;;;;;;;4953124;28;20047;-87
2021/07/06 05:37:02;;;;;;;5.50;4.38;;;;;;;;;;4952833;28;20063;-87
2021/07/06 05:39:29;;;;;;;4.93;4.28;;;;;;;;;;4954885;28;20051;-87
2021/07/06 05:41:57;;;;;;;5.28;3.97;;;;;;;;;;4952748;28;20514;-89
2021/07/06 05:44:23;;;;;;;4.20;3.78;;;;;;;;;;4954123;28;20479;-86
2021/07/06 05:46:49;;;;;;;5.28;4.00;;;;;;;;;;4951999;28;20065;-87
2021/07/06 05:49:16;;;;;;;4.13;3.63;;;;;;;;;;4952484;28;20054;-89
2021/07/06 05:51:42;;;;;;;4.13;3.63;;;;;;;;;;4952031;28;20094;-90
2021/07/06 05:54:08;;;;;;;4.28;3.78;;;;;;;;;;4950767;28;20078;-89
2021/07/06 05:56:34;;;;;;;4.55;3.58;;;;;;;;;;4952122;28;20051;-90
2021/07/06 05:59:03;;;;;;;4.82;3.50;;;;;;;;;;4952362;28;20072;-88
2021/07/06 06:01:31;;;;;;;5.57;3.33;;;;;;;;;;4951073;28;20062;-88
2021/07/06 06:03:58;;;;;;;3.83;3.13;;;;;;;;;;4951962;28;20138;-88
2021/07/06 06:06:24;;;;;;;4.93;3.20;;;;;;;;;;4951081;28;20055;-87
2021/07/06 06:08:50;;;;;;;3.78;3.20;;;;;;;;;;4939159;28;20496;-86
2021/07/06 06:11:17;;;;;;;4.05;2.97;;;;;;;;;;4931569;28;20083;-86
2021/07/06 06:13:43;;;;;;;3.85;2.80;;;;;;;;;;4936182;28;20047;-86
2021/07/06 06:16:09;;;;;;;2.85;2.55;;;;;;;;;;4950727;28;20070;-85
2021/07/06 06:18:36;;;;;;;4.00;2.80;;;;;;;;;;4965493;28;20090;-87
2021/07/06 06:21:02;;;;;;;3.10;2.45;;;;;;;;;;4950176;28;20062;-84
2021/07/06 06:23:28;;;;;;;4.07;2.53;;;;;;;;;;4951918;28;20072;-83
2021/07/06 06:25:55;;;;;;;4.63;2.47;;;;;;;;;;4949664;28;20077;-84
2021/07/06 06:28:21;;;;;;;3.33;2.30;;;;;;;;;;4946074;28;20066;-83
2021/07/06 06:30:48;;;;;;;5.05;2.60;;;;;;;;;;4937152;28;20055;-83
2021/07/06 06:33:14;;;;;;;4.07;2.60;;;;;;;;;;4950906;28;20075;-85
2021/07/06 06:35:41;;;;;;;4.00;2.35;;;;;;;;;;4951125;28;20043;-84
2021/07/06 06:38:08;;;;;;;5.97;2.67;;;;;;;;;;4962746;28;20058;-84
2021/07/06 06:40:34;;;;;;;3.38;2.63;;;;;;;;;;4951108;28;20471;-88
2021/07/06 06:43:00;;;;;;;4.35;2.28;;;;;;;;;;4952425;28;20051;-83
2021/07/06 06:45:30;;;;;;;6.78;2.50;;;;;;;;;;4967179;28;20150;-83
2021/07/06 06:47:57;;;;;;;3.42;2.33;;;;;;;;;;4958817;28;20064;-84
2021/07/06 06:50:23;;;;;;;3.58;2.30;;;;;;;;;;4951940;28;20054;-84
2021/07/06 06:52:49;;;;;;;3.33;2.30;;;;;;;;;;4951174;28;20051;-83
2021/07/06 06:55:15;;;;;;;5.20;2.33;;;;;;;;;;4951451;28;20055;-86
2021/07/06 06:57:41;;;;;;;5.40;2.55;;;;;;;;;;4951017;28;20051;-83
2021/07/06 07:00:09;;;;;;;3.75;2.20;;;;;;;;;;4949924;28;20063;-84
2021/07/06 07:02:38;;;;;;;3.00;2.20;;;;;;;;;;4949820;28;20074;-85
2021/07/06 07:05:04;;;;;;;4.00;2.10;;;;;;;;;;4941482;28;20058;-83
2021/07/06 07:07:30;;;;;;;2.47;2.03;;;;;;;;;;4950407;28;20051;-83
2021/07/06 07:09:57;;;;;;;3.60;2.15;;;;;;;;;;4951020;28;20054;-83
2021/07/06 07:12:23;;;;;;;3.78;2.28;;;;;;;;;;4950010;28;20099;-84
2021/07/06 07:14:49;;;;;;;3.83;2.10;;;;;;;;;;4950931;28;20051;-84
2021/07/06 07:17:16;;;;;;;3.88;2.30;;;;;;;;;;4951102;28;20051;-85
2021/07/06 07:19:42;;;;;;;3.00;2.30;;;;;;;;;;4949813;28;20047;-84
2021/07/06 07:22:08;;;;;;;4.07;2.22;;;;;;;;;;4950028;28;20174;-84
2021/07/06 07:24:35;;;;;;;3.90;2.30;;;;;;;;;;4949731;28;20063;-83
2021/07/06 07:27:01;;;;;;;3.08;2.17;;;;;;;;;;4951336;28;20126;-83
2021/07/06 07:29:28;;;;;;;4.05;2.28;;;;;;;;;;4950589;29;20066;-83
2021/07/06 07:31:54;;;;;;;3.88;2.58;;;;;;;;;;4950378;28;20055;-84
2021/07/06 07:34:21;;;;;;;3.25;2.30;;;;;;;;;;4950770;28;20142;-84
2021/07/06 07:36:47;;;;;;;3.10;2.30;;;;;;;;;;4950538;28;20484;-84
2021/07/06 07:39:13;;;;;;;4.15;2.40;;;;;;;;;;4950025;28;20492;-84
2021/07/06 07:41:39;;;;;;;2.60;2.10;;;;;;;;;;4950289;28;20220;-83
2021/07/06 07:44:06;;;;;;;4.60;2.35;;;;;;;;;;4949736;28;20055;-83
2021/07/06 07:46:32;;;;;;;2.75;2.00;;;;;;;;;;4951072;28;20487;-83
2021/07/06 07:48:58;;;;;;;5.22;2.50;;;;;;;;;;4951095;28;20495;-84
2021/07/06 07:51:25;;;;;;;2.92;2.13;;;;;;;;;;4933041;28;20103;-83
2021/07/06 07:53:51;;;;;;;4.45;2.55;;;;;;;;;;4931384;28;20142;-83
2021/07/06 07:56:17;;;;;;;6.20;2.10;;;;;;;;;;4930526;29;20492;-84
2021/07/06 07:58:43;;;;;;;5.10;2.30;;;;;;;;;;4930953;29;20063;-84
2021/07/06 08:01:09;;;;;;;2.78;2.28;;;;;;;;;;4930631;29;20083;-83
2021/07/06 08:03:36;;;;;;;3.80;2.28;;;;;;;;;;4930328;29;20063;-83
2021/07/06 08:06:03;;;;;;;7.38;2.42;;;;;;;;;;4937319;28;20509;-82
2021/07/06 08:08:29;;;;;;;7.50;2.97;;;;;;;;;;4949683;28;20055;-83
2021/07/06 08:10:57;;;;;;;2.95;2.22;;;;;;;;;;4948240;28;20151;-83
2021/07/06 08:13:25;;;;;;;4.88;2.55;;;;;;;;;;4950633;28;20479;-83
2021/07/06 08:15:52;;;;;;;3.15;2.22;;;;;;;;;;4950057;28;20672;-82
2021/07/06 08:18:18;;;;;;;4.03;2.80;;;;;;;;;;4950342;28;20126;-83
2021/07/06 08:20:45;;;;;;;3.80;2.40;;;;;;;;;;4932739;28;20043;-83
2021/07/06 08:23:11;;;;;;;3.72;2.28;;;;;;;;;;4933557;28;20082;-83
2021/07/06 08:25:38;;;;;;;5.38;2.22;;;;;;;;;;4950317;28;20136;-83
2021/07/06 08:28:04;;;;;;;5.72;2.22;;;;;;;;;;4949723;28;20087;-83
2021/07/06 08:30:30;;;;;;;4.05;2.30;;;;;;;;;;4933879;29;20063;-84
2021/07/06 08:32:57;;;;;;;4.47;2.05;;;;;;;;;;4950210;28;20051;-83
2021/07/06 08:35:23;;;;;;;3.47;1.92;;;;;;;;;;4950385;28;20130;-84
2021/07/06 08:37:49;;;;;;;5.85;2.10;;;;;;;;;;4948877;28;20051;-84
2021/07/06 08:40:15;;;;;;;3.35;1.90;;;;;;;;;;4950209;28;20131;-86
2021/07/06 08:42:42;;;;;;;5.03;2.20;;;;;;;;;;4948462;28;20055;-84
2021/07/06 08:45:08;;;;;;;4.65;2.25;;;;;;;;;;4951807;28;20043;-83
2021/07/06 08:47:35;;;;;;;2.55;1.83;;;;;;;;;;4938949;29;20051;-83
2021/07/06 08:50:02;;;;;;;4.07;1.88;;;;;;;;;;4953858;28;20047;-83
2021/07/06 08:52:29;;;;;;;5.68;2.00;;;;;;;;;;4936819;29;20150;-84
2021/07/06 08:54:56;;;;;;;5.07;1.83;;;;;;;;;;4953221;28;20102;-83
2021/07/06 08:57:22;;;;;;;2.47;1.85;;;;;;;;;;4953088;28;20130;-83
2021/07/06 08:59:49;;;;;;;2.92;1.80;;;;;;;;;;4935932;28;20507;-84
2021/07/06 09:02:20;;;;;;;4.43;2.20;;;;;;;;;;4953722;28;20495;-86
2021/07/06 09:04:47;;;;;;;3.65;1.70;;;;;;;;;;4952690;28;20051;-84
2021/07/06 09:07:14;;;;;;;3.15;1.88;;;;;;;;;;4952025;28;20059;-83
2021/07/06 09:09:40;;;;;;;3.10;1.90;;;;;;;;;;4952799;28;20058;-90
2021/07/06 09:12:08;;;;;;;4.18;1.58;;;;;;;;;;4942312;28;20464;-83
2021/07/06 09:14:37;;;;;;;2.70;1.80;;;;;;;;;;4953420;28;20055;-83
2021/07/06 09:17:10;;;;;;;2.08;1.70;;;;;;;;;;4952776;28;20051;-83
2021/07/06 09:19:36;;;;;;;3.90;1.85;;;;;;;;;;4953462;28;20507;-84
2021/07/06 09:22:09;;;;;;;2.95;1.80;;;;;;;;;;4952875;28;20051;-82
2021/07/06 09:24:36;;;;;;;4.53;1.63;;;;;;;;;;4952027;28;20047;-88
2021/07/06 09:27:22;;;;;;;2.67;1.70;;;;;;;;;;4952217;28;20051;-83
2021/07/06 09:30:07;;;;;;;3.50;2.10;;;;;;;;;;4950940;28;20055;-83
2021/07/06 09:32:37;;;;;;;3.72;1.83;;;;;;;;;;4952421;28;20555;-85
2021/07/06 09:35:11;;;;;;;3.13;1.80;;;;;;;;;;4952665;28;20059;-83
2021/07/06 09:37:50;;;;;;;2.60;1.67;;;;;;;;;;4952801;28;20110;-82
2021/07/06 09:40:20;;;;;;;3.78;2.10;;;;;;;;;;4953193;28;20106;-83
2021/07/06 09:42:47;;;;;;;4.47;1.90;;;;;;;;;;4952348;28;20047;-83
2021/07/06 09:45:13;;;;;;;4.97;2.40;;;;;;;;;;4951691;28;20066;-83
2021/07/06 09:47:39;;;;;;;2.92;2.00;;;;;;;;;;4950751;28;20051;-83
2021/07/06 09:50:06;;;;;;;4.55;2.03;;;;;;;;;;4952245;28;20095;-82
2021/07/06 09:52:35;;;;;;;3.03;2.40;;;;;;;;;;4952773;28;20051;-83
2021/07/06 09:55:07;;;;;;;4.97;2.30;;;;;;;;;;4952516;28;20047;-83
2021/07/06 09:57:39;;;;;;;6.35;2.10;;;;;;;;;;4951808;28;20086;-82
2021/07/06 10:00:14;;;;;;;3.92;2.33;;;;;;;;;;4951896;28;20089;-83
2021/07/06 10:02:41;;;;;;;4.50;2.65;;;;;;;;;;4952729;28;20058;-83
2021/07/06 10:05:10;;;;;;;4.45;2.38;;;;;;;;;;4952690;28;20051;-82
2021/07/06 10:07:38;;;;;;;4.55;2.30;;;;;;;;;;4950684;28;20120;-82
2021/07/06 10:10:10;;;;;;;3.15;2.40;;;;;;;;;;4951767;28;20394;-82
2021/07/06 10:12:37;;;;;;;6.75;2.55;;;;;;;;;;4952084;28;20043;-82
2021/07/06 10:15:04;;;;;;;3.20;2.08;;;;;;;;;;4952002;28;20055;-82
2021/07/06 10:17:31;;;;;;;5.50;2.38;;;;;;;;;;4943777;28;20083;-82
2021/07/06 10:19:57;;;;;;;5.13;2.50;;;;;;;;;;4933732;28;20059;-83
2021/07/06 10:22:23;;;;;;;6.45;2.72;;;;;;;;;;4950154;28;20053;-83
2021/07/06 10:24:50;;;;;;;3.28;2.75;;;;;;;;;;4950564;28;20066;-82
2021/07/06 10:27:26;;;;;;;4.65;2.75;;;;;;;;;;4952059;28;20051;-83
2021/07/06 10:30:17;;;;;;;3.28;2.53;;;;;;;;;;4951930;28;20491;-84
2021/07/06 10:32:51;;;;;;;5.00;3.63;;;;;;;;;;4940831;28;20442;-90
2021/07/06 10:35:18;;;;;;;;;;;;;;;;;;4952406;28;20407;-82
2021/07/06 10:37:44;;;;;;;5.90;3.85;;;;;;;;;;4950154;28;20278;-89
2021/07/06 10:40:13;;;;;;;10.10;5.20;;;;;;;;;;4933702;28;20081;-83
2021/07/06 10:42:40;;;;;;;5.10;2.92;;;;;;;;;;4931373;28;20130;-81
2021/07/06 10:45:13;;;;;;;2.63;2.20;;;;;;;;;;4932434;28;20400;-82
2021/07/06 10:47:39;;;;;;;6.15;1.63;;;;;;;;;;4932339;28;20048;-82
2021/07/06 10:50:24;;;;;;;4.70;1.65;;;;;;;;;;4943069;28;20051;-83
2021/07/06 10:52:50;;;;;;;;;;;;;;;;;;4950335;28;20055;-82
2021/07/06 10:55:35;;;;;;;7.00;2.28;;;;;;;;;;4950725;28;19978;-83
2021/07/06 10:58:01;;;;;;;;;;;;;;;;;;4951671;28;20050;-82
2021/07/06 11:00:40;;;;;;;6.25;2.20;;;;;;;;;;4950636;28;20291;-83
2021/07/06 11:03:17;;;;;;;7.72;2.65;;;;;;;;;;4940970;28;20055;-82
2021/07/06 11:05:43;;;;;;;3.53;2.13;;;;;;;;;;4951086;28;20051;-82
2021/07/06 11:08:29;;;;;;;8.07;2.58;;;;;;;;;;4949157;28;20058;-84
2021/07/06 11:10:55;;;;;;;7.07;2.90;;;;;;;;;;4950367;28;20086;-83
2021/07/06 11:13:26;;;;;;;8.65;2.45;;;;;;;;;;4950897;28;20054;-81
2021/07/06 11:15:53;;;;;;;6.28;2.20;;;;;;;;;;4950861;28;20479;-84
2021/07/06 11:18:32;;;;;;;2.90;1.13;;;;;;;;;;4950091;28;20055;-83
2021/07/06 11:20:58;;;;;;;7.82;2.22;;;;;;;;;;4951183;28;20094;-84
2021/07/06 11:23:32;;;;;;;4.72;1.48;;;;;;;;;;4951324;28;20514;-82
2021/07/06 11:26:06;;;;;;;7.30;2.33;;;;;;;;;;4949389;29;20110;-84
2021/07/06 11:28:48;;;;;;;4.65;1.10;;;;;;;;;;4950108;28;20416;-81
2021/07/06 11:31:21;;;;;;;4.80;1.30;;;;;;;;;;4950985;28;20126;-83
2021/07/06 11:33:47;;;;;;;2.10;0.88;;;;;;;;;;4931822;29;20048;-88
2021/07/06 11:36:18;;;;;;;5.22;1.92;;;;;;;;;;4947271;28;20052;-83
2021/07/06 11:38:45;;;;;;;8.55;1.77;;;;;;;;;;4930781;29;20103;-83
2021/07/06 11:41:12;;;;;;;5.00;1.50;;;;;;;;;;4944412;28;20514;-83
2021/07/06 11:43:39;;;;;;;6.95;1.60;;;;;;;;;;4950908;28;20146;-83
2021/07/06 11:46:06;;;;;;;5.60;1.90;;;;;;;;;;4949128;28;20087;-83
2021/07/06 11:48:36;;;;;;;5.88;2.20;;;;;;;;;;4950370;28;20043;-82
2021/07/06 11:51:09;;;;;;;6.88;1.73;;;;;;;;;;4950409;28;20062;-82
2021/07/06 11:53:39;;;;;;;3.92;1.55;;;;;;;;;;4951012;28;20491;-83
2021/07/06 11:56:08;;;;;;;5.70;1.20;;;;;;;;;;4949171;28;20083;-83
2021/07/06 11:58:35;;;;;;;4.32;1.90;;;;;;;;;;4950868;28;20451;-84
2021/07/06 12:01:06;;;;;;;7.25;1.40;;;;;;;;;;4950471;28;20078;-83
2021/07/06 12:03:33;;;;;;;5.13;1.23;;;;;;;;;;4951012;28;20130;-83
2021/07/06 12:06:02;;;;;;;4.65;1.40;;;;;;;;;;4949062;28;20059;-84
2021/07/06 12:08:29;;;;;;;6.10;1.90;;;;;;;;;;4951096;28;20567;-84
2021/07/06 12:11:00;;;;;;;5.63;1.70;;;;;;;;;;4949688;28;20110;-84
2021/07/06 12:13:27;;;;;;;4.60;1.50;;;;;;;;;;4950382;28;20047;-83
2021/07/06 12:15:55;;;;;;;4.63;1.48;;;;;;;;;;4950483;28;20052;-83
2021/07/06 12:18:21;;;;;;;6.18;2.15;;;;;;;;;;4947112;28;20078;-83
2021/07/06 12:20:58;;;;;;;6.28;1.73;;;;;;;;;;4935549;28;20055;-83
2021/07/06 12:23:26;;;;;;;8.80;2.40;;;;;;;;;;4934081;28;20139;-83
2021/07/06 12:25:54;;;;;;;6.28;1.58;;;;;;;;;;4933907;29;20496;-83
2021/07/06 12:28:20;;;;;;;5.63;1.73;;;;;;;;;;4935378;28;20056;-83
2021/07/06 12:31:05;;;;;;;5.63;1.60;;;;;;;;;;4943721;28;20075;-83
2021/07/06 12:33:31;;;;;;;;;;;;;;;;;;4935618;29;20138;-80
2021/07/06 12:35:57;;;;;;;6.25;1.80;;;;;;;;;;4950139;28;19922;-83
2021/07/06 12:38:27;;;;;;;4.80;1.80;;;;;;;;;;4968977;28;20070;-83
2021/07/06 12:40:53;;;;;;;5.25;1.50;;;;;;;;;;4953454;28;20051;-83
2021/07/06 12:43:24;;;;;;;6.80;2.30;;;;;;;;;;4968827;28;20134;-83
2021/07/06 12:45:51;;;;;;;5.57;1.67;;;;;;;;;;4954077;28;20051;-89
2021/07/06 12:48:27;;;;;;;8.80;1.60;;;;;;;;;;4953971;28;20470;-83
2021/07/06 12:50:53;;;;;;;7.63;1.80;;;;;;;;;;4952823;28;20055;-84
2021/07/06 12:53:23;;;;;;;7.85;1.70;;;;;;;;;;4953920;28;20059;-83
2021/07/06 12:55:49;;;;;;;5.97;1.50;;;;;;;;;;4954099;28;20053;-82
2021/07/06 12:58:16;;;;;;;5.10;1.70;;;;;;;;;;4953399;28;20062;-85
2021/07/06 13:00:43;;;;;;;4.43;1.15;;;;;;;;;;4953930;28;20047;-81
2021/07/06 13:03:09;;;;;;;7.07;1.38;;;;;;;;;;4953087;28;20051;-83
2021/07/06 13:05:38;;;;;;;6.53;1.40;;;;;;;;;;4951998;28;20114;-82
2021/07/06 13:08:05;;;;;;;5.68;1.20;;;;;;;;;;4953230;28;20058;-83
2021/07/06 13:10:36;;;;;;;5.63;1.40;;;;;;;;;;4953567;28;20061;-83
2021/07/06 13:13:02;;;;;;;6.93;1.30;;;;;;;;;;4951038;28;20062;-82
2021/07/06 13:15:30;;;;;;;9.93;1.60;;;;;;;;;;4953094;29;20051;-83
2021/07/06 13:17:56;;;;;;;7.55;1.60;;;;;;;;;;4953023;28;20085;-84
2021/07/06 13:20:23;;;;;;;3.28;1.05;;;;;;;;;;4948661;28;20067;-82
2021/07/06 13:22:49;;;;;;;5.00;1.40;;;;;;;;;;4933874;28;20052;-82
2021/07/06 13:25:16;;;;;;;4.65;1.27;;;;;;;;;;4931848;29;20067;-83
2021/07/06 13:27:43;;;;;;;3.15;1.00;;;;;;;;;;4933741;28;20496;-82
2021/07/06 13:30:13;;;;;;;6.00;1.55;;;;;;;;;;4932322;29;20059;-82
2021/07/06 13:32:41;;;;;;;6.05;1.35;;;;;;;;;;4946272;28;20055;-82
2021/07/06 13:35:08;;;;;;;4.07;1.30;;;;;;;;;;4950102;28;20047;-81
2021/07/06 13:37:34;;;;;;;3.83;1.17;;;;;;;;;;4942775;28;20078;-82
2021/07/06 13:40:01;;;;;;;5.20;1.10;;;;;;;;;;4933410;28;20062;-81
2021/07/06 13:42:28;;;;;;;5.22;1.63;;;;;;;;;;4932254;29;20051;-86
2021/07/06 13:44:54;;;;;;;4.47;1.35;;;;;;;;;;4933545;28;20050;-88
2021/07/06 13:47:20;;;;;;;8.77;1.35;;;;;;;;;;4933023;28;20058;-82
2021/07/06 13:49:46;;;;;;;5.32;1.27;;;;;;;;;;4932969;28;20071;-83
2021/07/06 13:52:13;;;;;;;9.32;1.92;;;;;;;;;;4931308;28;20063;-83
2021/07/06 13:54:40;;;;;;;3.85;1.10;;;;;;;;;;4938412;28;20047;-81
2021/07/06 13:57:12;;;;;;;4.63;1.30;;;;;;;;;;4950675;28;20377;-82
2021/07/06 13:59:38;;;;;;;6.00;1.42;;;;;;;;;;4951990;28;20142;-83
2021/07/06 14:02:05;;;;;;;6.93;1.58;;;;;;;;;;4950145;28;20051;-82
2021/07/06 14:04:31;;;;;;;6.13;1.40;;;;;;;;;;4946819;28;20424;-84
2021/07/06 14:06:58;;;;;;;6.70;1.42;;;;;;;;;;4947076;28;20113;-90
2021/07/06 14:09:24;;;;;;;7.82;1.40;;;;;;;;;;4945814;28;20055;-83
2021/07/06 14:11:51;;;;;;;4.68;1.40;;;;;;;;;;4931468;29;20051;-81
2021/07/06 14:14:17;;;;;;;6.00;1.27;;;;;;;;;;4931837;29;20063;-84
2021/07/06 14:16:43;;;;;;;3.78;1.40;;;;;;;;;;4932662;28;20146;-83
2021/07/06 14:19:10;;;;;;;5.05;1.30;;;;;;;;;;4932177;28;20039;-84
2021/07/06 14:21:36;;;;;;;5.70;1.65;;;;;;;;;;4932926;28;20134;-83
2021/07/06 14:24:02;;;;;;;5.43;1.38;;;;;;;;;;4931841;28;20495;-83
2021/07/06 14:26:29;;;;;;;4.25;1.27;;;;;;;;;;4952668;28;20051;-83
2021/07/06 14:28:56;;;;;;;5.53;1.27;;;;;;;;;;4944256;28;20071;-85
2021/07/06 14:31:23;;;;;;;5.53;1.35;;;;;;;;;;4940531;28;20491;-83
2021/07/06 14:33:49;;;;;;;4.57;1.48;;;;;;;;;;4951784;28;20051;-83
2021/07/06 14:36:15;;;;;;;6.30;1.80;;;;;;;;;;4938672;28;20050;-83
2021/07/06 14:38:42;;;;;;;4.43;1.60;;;;;;;;;;4932303;29;20066;-83
2021/07/06 14:41:08;;;;;;;5.25;1.70;;;;;;;;;;4940406;28;20051;-83